Time;durP1;ratioP1;P1;durP2;ratioP2;P2;SDS_P1;SDS_P2;PMS_P1;PMS_P2;Temp;Humidity;BMP_temperature;BMP_pressure;BME280_temperature;BME280_humidity;BME280_pressure;Samples;Min_cycle;Max_cycle;Signal;HPM_P1;HPM_P2
2023/10/19 00:01:57;;;;;;;10.80;8.50;;;11.40;99.90;;;;;;4997393;28;20461;-68
2023/10/19 00:04:24;;;;;;;10.97;9.70;;;11.40;99.90;;;;;;4997548;28;20829;-67
2023/10/19 00:06:52;;;;;;;10.37;8.40;;;11.40;99.90;;;;;;4997740;28;20460;-67
2023/10/19 00:09:20;;;;;;;10.30;9.30;;;11.40;99.90;;;;;;4997927;28;20468;-67
2023/10/19 00:11:51;;;;;;;10.80;9.70;;;11.50;99.90;;;;;;4996640;28;20862;-67
2023/10/19 00:14:18;;;;;;;10.70;9.60;;;11.50;99.90;;;;;;4996262;28;20910;-67
2023/10/19 00:16:50;;;;;;;10.30;9.30;;;11.50;99.90;;;;;;4995867;28;20461;-67
2023/10/19 00:19:19;;;;;;;10.33;9.27;;;11.50;99.90;;;;;;4995313;28;20914;-62
2023/10/19 00:21:51;;;;;;;12.03;10.83;;;11.50;99.90;;;;;;4994176;28;20462;-66
2023/10/19 00:24:19;;;;;;;11.13;10.03;;;11.50;99.90;;;;;;4994379;28;20476;-67
2023/10/19 00:26:48;;;;;;;11.63;10.43;;;11.50;99.90;;;;;;4996003;28;20820;-65
2023/10/19 00:29:30;;;;;;;11.67;10.47;;;11.50;99.90;;;;;;4997499;28;20898;-70
2023/10/19 00:31:59;;;;;;;11.80;10.60;;;11.50;99.90;;;;;;4997208;28;20468;-64
2023/10/19 00:34:26;;;;;;;11.27;9.97;;;11.50;99.90;;;;;;4997350;28;20489;-67
2023/10/19 00:36:55;;;;;;;13.00;9.50;;;11.50;99.90;;;;;;4997249;28;20551;-64
2023/10/19 00:39:23;;;;;;;11.20;10.10;;;11.60;99.90;;;;;;4997521;28;20461;-66
2023/10/19 00:41:57;;;;;;;10.87;9.77;;;11.60;99.90;;;;;;4997017;28;20464;-66
2023/10/19 00:44:35;;;;;;;9.43;8.53;;;11.60;99.90;;;;;;4996809;28;20496;-67
2023/10/19 00:47:03;;;;;;;9.60;8.63;;;11.60;99.90;;;;;;4997486;28;20464;-62
2023/10/19 00:49:32;;;;;;;10.50;9.50;;;11.60;99.90;;;;;;4996621;28;20522;-66
2023/10/19 00:52:11;;;;;;;10.90;9.47;;;11.60;99.90;;;;;;4996621;28;20461;-63
2023/10/19 00:54:50;;;;;;;10.00;9.00;;;11.70;99.90;;;;;;4996591;28;20472;-62
2023/10/19 00:57:22;;;;;;;10.80;9.70;;;11.70;99.90;;;;;;4997222;28;20464;-64
2023/10/19 00:59:53;;;;;;;12.90;11.60;;;11.70;99.90;;;;;;4996692;28;20466;-64
2023/10/19 01:02:21;;;;;;;12.57;11.37;;;11.80;99.90;;;;;;4996701;28;20469;-65
2023/10/19 01:04:55;;;;;;;12.20;11.00;;;11.80;99.90;;;;;;4996407;28;20635;-66
2023/10/19 01:07:27;;;;;;;12.03;10.83;;;11.90;99.90;;;;;;4996960;28;20465;-64
2023/10/19 01:09:59;;;;;;;13.60;11.57;;;11.90;99.90;;;;;;4996423;28;20464;-64
2023/10/19 01:12:33;;;;;;;16.30;12.60;;;11.90;99.90;;;;;;4996871;28;20918;-66
2023/10/19 01:15:59;;;;;;;13.27;11.87;;;12.00;99.90;;;;;;4997179;28;20761;-62
2023/10/19 01:18:29;;;;;;;13.40;12.00;;;12.00;99.90;;;;;;4992582;28;20464;-67
2023/10/19 01:20:56;;;;;;;18.43;13.57;;;12.00;99.90;;;;;;4996185;28;20530;-75
2023/10/19 01:23:27;;;;;;;15.97;14.27;;;12.00;99.90;;;;;;4996871;28;20471;-70
2023/10/19 01:26:05;;;;;;;15.90;14.23;;;12.00;99.90;;;;;;4996343;28;20540;-66
2023/10/19 01:28:43;;;;;;;15.97;14.33;;;12.10;99.90;;;;;;4996337;28;20812;-62
2023/10/19 01:31:15;;;;;;;15.60;14.10;;;12.00;99.90;;;;;;4996811;28;20766;-68
2023/10/19 01:33:43;;;;;;;15.13;13.60;;;12.10;99.90;;;;;;4996621;28;20461;-70
2023/10/19 01:36:24;;;;;;;16.73;14.00;;;12.10;99.90;;;;;;4995944;28;20465;-67
2023/10/19 01:38:53;;;;;;;15.53;14.07;;;12.10;99.90;;;;;;4996745;28;20465;-67
2023/10/19 01:41:21;;;;;;;16.87;15.03;;;12.10;99.90;;;;;;4996582;28;20820;-70
2023/10/19 01:43:50;;;;;;;17.90;15.00;;;12.20;99.90;;;;;;4996099;28;20541;-67
2023/10/19 01:46:23;;;;;;;16.13;14.13;;;12.20;99.90;;;;;;4996060;28;20500;-69
2023/10/19 01:48:54;;;;;;;15.20;13.57;;;12.20;99.90;;;;;;4996401;28;20489;-69
2023/10/19 01:51:23;;;;;;;15.00;13.40;;;12.20;99.90;;;;;;4996253;28;20912;-70
2023/10/19 01:53:51;;;;;;;18.00;13.63;;;12.20;99.90;;;;;;4995952;28;20463;-70
2023/10/19 01:56:20;;;;;;;15.33;13.63;;;12.20;99.90;;;;;;4996236;28;20957;-70
2023/10/19 01:58:46;;;;;;;16.20;14.50;;;12.30;99.90;;;;;;4996009;28;20461;-66
2023/10/19 02:01:20;;;;;;;16.20;13.03;;;12.30;99.90;;;;;;4996437;28;20535;-70
2023/10/19 02:03:53;;;;;;;16.43;12.67;;;12.40;99.90;;;;;;4995784;28;20551;-70
2023/10/19 02:06:27;;;;;;;13.47;11.90;;;12.40;99.90;;;;;;4995797;28;20564;-70
2023/10/19 02:09:00;;;;;;;13.83;12.33;;;12.50;99.90;;;;;;4995909;28;20559;-68
2023/10/19 02:11:28;;;;;;;14.00;12.60;;;12.50;99.90;;;;;;4995828;28;20471;-67
2023/10/19 02:13:59;;;;;;;14.13;12.60;;;12.50;99.90;;;;;;4995198;28;20443;-67
2023/10/19 02:16:29;;;;;;;14.20;12.20;;;12.50;99.90;;;;;;4994144;28;20515;-69
2023/10/19 02:18:57;;;;;;;13.17;11.10;;;12.50;99.90;;;;;;4996098;28;20543;-68
2023/10/19 02:21:27;;;;;;;15.00;11.00;;;12.50;99.90;;;;;;4995617;28;20465;-69
2023/10/19 02:23:55;;;;;;;14.00;10.73;;;12.60;99.90;;;;;;4995184;28;20845;-69
2023/10/19 02:26:25;;;;;;;12.77;11.47;;;12.60;99.90;;;;;;4995726;28;20883;-68
2023/10/19 02:28:52;;;;;;;14.33;12.30;;;12.60;99.90;;;;;;4995903;28;20468;-68
2023/10/19 02:31:21;;;;;;;11.47;10.27;;;12.70;99.90;;;;;;4995947;28;20461;-68
2023/10/19 02:33:51;;;;;;;11.70;10.57;;;12.70;99.90;;;;;;4995189;28;20461;-66
2023/10/19 02:36:20;;;;;;;13.17;10.60;;;12.70;99.90;;;;;;4995295;28;20471;-68
2023/10/19 02:38:50;;;;;;;12.63;11.33;;;12.80;99.90;;;;;;4995491;28;20855;-69
2023/10/19 02:41:19;;;;;;;17.60;11.87;;;12.80;99.90;;;;;;4995436;28;20505;-69
2023/10/19 02:43:48;;;;;;;12.93;10.07;;;12.80;99.90;;;;;;4994941;28;21031;-70
2023/10/19 02:46:17;;;;;;;12.50;11.20;;;12.80;99.90;;;;;;4995541;28;20464;-66
2023/10/19 02:48:44;;;;;;;12.60;11.30;;;12.80;99.90;;;;;;4995369;28;20501;-68
2023/10/19 02:51:12;;;;;;;10.77;9.67;;;12.80;99.90;;;;;;4995531;28;20798;-67
2023/10/19 02:53:39;;;;;;;13.60;11.03;;;12.80;99.90;;;;;;4995156;28;20555;-68
2023/10/19 02:56:15;;;;;;;12.23;10.90;;;12.80;99.90;;;;;;4995437;28;20439;-66
2023/10/19 02:58:48;;;;;;;13.43;10.40;;;12.80;99.90;;;;;;4995241;28;20465;-68
2023/10/19 03:01:21;;;;;;;13.17;11.33;;;12.80;99.90;;;;;;4995491;28;20476;-68
2023/10/19 03:03:50;;;;;;;12.80;11.33;;;12.80;99.90;;;;;;4995157;28;20922;-67
2023/10/19 03:06:21;;;;;;;16.73;11.97;;;12.80;99.90;;;;;;4995109;28;20461;-67
2023/10/19 03:08:47;;;;;;;13.10;11.70;;;12.80;99.90;;;;;;4994876;28;20461;-67
2023/10/19 03:11:16;;;;;;;12.30;11.00;;;12.90;99.90;;;;;;4994974;28;20465;-64
2023/10/19 03:13:44;;;;;;;12.83;11.53;;;12.80;99.90;;;;;;4994874;28;20488;-66
2023/10/19 03:16:11;;;;;;;12.13;10.83;;;12.90;99.90;;;;;;4995078;28;20542;-66
2023/10/19 03:18:38;;;;;;;11.80;10.60;;;12.90;99.90;;;;;;4994672;28;20473;-66
2023/10/19 03:21:05;;;;;;;11.87;10.57;;;12.90;99.90;;;;;;4994865;28;20465;-66
2023/10/19 03:23:34;;;;;;;12.53;10.70;;;12.90;99.90;;;;;;4994710;28;20590;-67
2023/10/19 03:28:54;;;;;;;10.93;9.50;;;12.90;99.90;;;;;;4998177;28;20433;-65
2023/10/19 03:31:23;;;;;;;12.43;10.87;;;12.90;99.90;;;;;;4994891;28;20457;-66
2023/10/19 03:33:53;;;;;;;12.03;10.20;;;12.90;99.90;;;;;;4994598;28;20457;-66
2023/10/19 03:36:23;;;;;;;10.77;9.67;;;12.90;99.90;;;;;;4994654;28;20936;-67
2023/10/19 03:38:51;;;;;;;10.87;9.70;;;12.90;99.90;;;;;;4994143;28;20461;-66
2023/10/19 03:41:21;;;;;;;10.57;8.30;;;13.00;99.90;;;;;;4994984;28;20492;-66
2023/10/19 03:43:51;;;;;;;13.57;8.40;;;12.90;99.90;;;;;;4993915;28;20591;-66
2023/10/19 03:46:28;;;;;;;10.00;8.97;;;13.00;99.90;;;;;;4994675;28;20491;-66
2023/10/19 03:48:58;;;;;;;8.43;7.10;;;13.00;99.90;;;;;;4994904;28;20465;-65
2023/10/19 03:51:26;;;;;;;9.10;7.70;;;13.00;99.90;;;;;;4994698;28;20771;-65
2023/10/19 03:53:58;;;;;;;9.00;7.47;;;13.00;99.90;;;;;;4993992;28;20563;-66
2023/10/19 03:56:25;;;;;;;8.20;7.37;;;13.00;99.90;;;;;;4994456;28;20473;-66
2023/10/19 03:58:54;;;;;;;8.40;6.63;;;13.10;99.90;;;;;;4994599;28;20781;-66
2023/10/19 04:01:22;;;;;;;7.47;5.73;;;13.10;99.90;;;;;;4994531;28;20748;-66
2023/10/19 04:03:52;;;;;;;9.53;6.50;;;13.10;99.90;;;;;;4993978;28;20501;-66
2023/10/19 04:06:20;;;;;;;9.63;5.90;;;13.10;99.90;;;;;;4994593;28;20819;-66
2023/10/19 04:08:50;;;;;;;7.17;6.47;;;13.10;99.90;;;;;;4994323;28;20504;-64
2023/10/19 04:11:22;;;;;;;7.53;6.17;;;13.20;99.90;;;;;;4994405;28;20824;-66
2023/10/19 04:13:54;;;;;;;6.80;6.13;;;13.20;99.90;;;;;;4994035;28;20898;-65
2023/10/19 04:16:23;;;;;;;9.30;6.90;;;13.20;99.90;;;;;;4993815;28;20781;-66
2023/10/19 04:18:50;;;;;;;9.20;7.40;;;13.20;99.90;;;;;;4994151;28;20468;-66
2023/10/19 04:21:17;;;;;;;7.80;6.33;;;13.20;99.90;;;;;;4994538;28;20457;-66
2023/10/19 04:23:46;;;;;;;8.73;6.90;;;13.20;99.90;;;;;;4993618;28;20590;-66
2023/10/19 04:26:18;;;;;;;8.70;6.67;;;13.20;99.90;;;;;;4993917;28;20518;-66
2023/10/19 04:28:49;;;;;;;6.93;6.23;;;13.20;99.90;;;;;;4994105;28;20465;-66
2023/10/19 04:31:17;;;;;;;9.13;7.20;;;13.20;99.90;;;;;;4994390;28;20465;-66
2023/10/19 04:33:49;;;;;;;7.83;6.80;;;13.20;99.90;;;;;;4993867;28;20747;-65
2023/10/19 04:36:21;;;;;;;8.27;7.23;;;13.20;99.90;;;;;;4993948;28;20747;-66
2023/10/19 04:38:48;;;;;;;11.27;6.63;;;13.20;99.90;;;;;;4995125;28;20907;-66
2023/10/19 04:41:15;;;;;;;12.00;7.00;;;13.20;99.90;;;;;;4996813;28;20552;-66
2023/10/19 04:43:49;;;;;;;8.80;6.53;;;13.20;99.90;;;;;;4996645;28;20500;-65
2023/10/19 04:46:18;;;;;;;7.87;6.53;;;13.20;99.90;;;;;;4997114;28;20468;-66
2023/10/19 04:48:47;;;;;;;8.17;5.97;;;13.20;99.90;;;;;;4997041;28;20518;-66
2023/10/19 04:51:14;;;;;;;8.07;6.90;;;13.20;99.90;;;;;;4997176;28;20462;-65
2023/10/19 04:53:42;;;;;;;7.93;6.60;;;13.10;99.90;;;;;;4996465;28;20745;-65
2023/10/19 04:56:10;;;;;;;9.07;6.80;;;13.10;99.90;;;;;;4995626;28;20486;-66
2023/10/19 04:58:39;;;;;;;6.50;5.90;;;13.20;99.90;;;;;;4995908;28;20457;-65
2023/10/19 05:01:06;;;;;;;10.43;7.77;;;13.20;99.90;;;;;;4996112;28;20467;-66
2023/10/19 05:03:34;;;;;;;7.83;7.07;;;13.20;99.90;;;;;;4995532;28;20492;-65
2023/10/19 05:06:03;;;;;;;9.70;8.17;;;13.20;99.90;;;;;;4995153;28;20461;-65
2023/10/19 05:08:32;;;;;;;8.40;7.57;;;13.20;99.90;;;;;;4995362;28;20469;-66
2023/10/19 05:11:00;;;;;;;11.83;8.33;;;13.20;99.90;;;;;;4996718;28;20813;-65
2023/10/19 05:13:28;;;;;;;9.40;8.10;;;13.20;99.90;;;;;;4996351;28;20555;-65
2023/10/19 05:15:56;;;;;;;10.20;7.27;;;13.20;99.90;;;;;;4996783;28;20547;-66
2023/10/19 05:18:24;;;;;;;8.77;7.83;;;13.20;99.90;;;;;;4996240;28;20567;-66
2023/10/19 05:20:55;;;;;;;10.67;8.10;;;13.20;99.90;;;;;;4997018;28;20461;-66
2023/10/19 05:23:25;;;;;;;8.63;7.53;;;13.20;99.90;;;;;;4996857;28;20466;-65
2023/10/19 05:25:53;;;;;;;12.60;8.33;;;13.10;99.90;;;;;;4995783;28;20588;-66
2023/10/19 05:28:21;;;;;;;8.93;7.40;;;13.10;99.90;;;;;;4996079;28;20467;-66
2023/10/19 05:30:50;;;;;;;10.70;7.63;;;13.10;99.90;;;;;;4996292;28;20523;-64
2023/10/19 05:33:20;;;;;;;7.57;6.87;;;13.10;99.90;;;;;;4977130;28;20436;-66
2023/10/19 05:35:48;;;;;;;8.70;7.80;;;13.10;99.90;;;;;;4976989;28;20469;-66
2023/10/19 05:38:15;;;;;;;9.10;7.87;;;13.00;99.90;;;;;;4976937;28;20556;-66
2023/10/19 05:40:45;;;;;;;12.17;7.40;;;13.10;99.90;;;;;;4976863;28;20466;-65
2023/10/19 05:43:12;;;;;;;9.07;7.60;;;13.10;99.90;;;;;;4976910;28;20502;-65
2023/10/19 05:45:39;;;;;;;11.17;7.73;;;13.00;99.90;;;;;;4976274;28;20504;-65
2023/10/19 05:48:07;;;;;;;9.67;8.00;;;13.00;99.90;;;;;;4976573;28;20458;-64
2023/10/19 05:50:35;;;;;;;9.37;8.00;;;13.00;99.90;;;;;;4976672;28;20763;-65
2023/10/19 05:53:02;;;;;;;8.50;7.63;;;13.00;99.90;;;;;;4992715;28;20457;-64
2023/10/19 05:55:30;;;;;;;11.53;8.47;;;13.00;99.90;;;;;;4994048;28;20493;-65
2023/10/19 05:57:57;;;;;;;8.70;7.27;;;13.10;99.90;;;;;;4994395;28;20469;-64
2023/10/19 06:00:25;;;;;;;7.93;6.93;;;13.10;99.90;;;;;;4994347;28;20469;-65
2023/10/19 06:02:53;;;;;;;8.67;7.43;;;13.10;99.90;;;;;;4994635;28;20550;-65
2023/10/19 06:05:21;;;;;;;11.13;7.10;;;13.10;99.90;;;;;;4994590;28;20493;-65
2023/10/19 06:07:50;;;;;;;9.27;7.40;;;13.10;99.90;;;;;;4994002;28;20544;-65
2023/10/19 06:10:20;;;;;;;8.23;6.80;;;13.10;99.90;;;;;;4994239;28;20754;-64
2023/10/19 06:12:48;;;;;;;9.47;7.60;;;13.20;99.90;;;;;;4993898;28;20465;-65
2023/10/19 06:15:18;;;;;;;10.43;7.40;;;13.20;99.90;;;;;;4994296;28;20990;-65
2023/10/19 06:17:47;;;;;;;7.90;6.97;;;13.20;99.90;;;;;;4994015;28;20898;-65
2023/10/19 06:20:24;;;;;;;9.43;6.90;;;13.20;99.90;;;;;;4993668;28;20774;-65
2023/10/19 06:22:52;;;;;;;9.70;6.87;;;13.30;99.90;;;;;;4994424;28;20472;-65
2023/10/19 06:25:21;;;;;;;8.07;7.27;;;13.30;99.90;;;;;;4994483;28;20597;-65
2023/10/19 06:27:49;;;;;;;9.13;6.60;;;13.30;99.90;;;;;;4995147;28;20465;-65
2023/10/19 06:30:19;;;;;;;11.53;7.10;;;13.30;99.90;;;;;;4995546;28;20440;-65
2023/10/19 06:32:51;;;;;;;6.47;5.60;;;13.30;99.90;;;;;;4995657;28;20557;-65
2023/10/19 06:35:18;;;;;;;11.20;7.07;;;13.20;99.90;;;;;;4995855;28;20806;-65
2023/10/19 06:37:46;;;;;;;7.50;6.40;;;13.20;99.90;;;;;;4995658;28;20750;-65
2023/10/19 06:40:16;;;;;;;7.57;6.87;;;13.20;99.90;;;;;;4995284;28;20457;-65
2023/10/19 06:42:45;;;;;;;8.17;7.20;;;13.20;99.90;;;;;;4995400;28;20469;-65
2023/10/19 06:45:13;;;;;;;8.73;7.07;;;13.30;99.90;;;;;;4995572;28;20520;-65
2023/10/19 06:47:42;;;;;;;7.80;6.30;;;13.30;99.90;;;;;;4995262;28;20469;-65
2023/10/19 06:50:11;;;;;;;7.60;5.53;;;13.30;99.90;;;;;;4995086;28;20500;-65
2023/10/19 06:52:38;;;;;;;8.03;7.10;;;13.30;99.90;;;;;;4995408;28;20461;-65
2023/10/19 06:55:10;;;;;;;9.27;6.50;;;13.40;99.90;;;;;;4995229;28;20893;-65
2023/10/19 06:57:38;;;;;;;8.80;6.23;;;13.50;99.90;;;;;;4994176;28;20465;-65
2023/10/19 07:00:14;;;;;;;9.30;5.90;;;13.50;99.90;;;;;;4993330;28;20471;-65
2023/10/19 07:02:43;;;;;;;6.47;5.53;;;13.50;99.90;;;;;;4993465;28;20817;-64
2023/10/19 07:05:11;;;;;;;9.67;6.10;;;13.60;99.90;;;;;;4993685;28;20493;-64
2023/10/19 07:07:40;;;;;;;6.90;5.00;;;13.60;99.90;;;;;;4993538;28;20465;-65
2023/10/19 07:10:09;;;;;;;6.90;5.30;;;13.60;99.90;;;;;;4993622;28;20453;-65
2023/10/19 07:12:37;;;;;;;6.87;5.20;;;13.60;99.90;;;;;;4993148;28;20489;-65
2023/10/19 07:15:07;;;;;;;8.17;6.03;;;13.70;99.90;;;;;;4994398;28;20484;-65
2023/10/19 07:17:35;;;;;;;8.70;5.30;;;13.70;99.90;;;;;;4992795;28;20471;-64
2023/10/19 07:20:05;;;;;;;9.00;5.40;;;13.70;99.90;;;;;;4993622;28;20572;-64
2023/10/19 07:22:33;;;;;;;6.20;5.17;;;13.70;99.90;;;;;;4994648;28;20511;-64
2023/10/19 07:25:02;;;;;;;10.97;5.97;;;13.80;99.90;;;;;;4993046;28;20596;-64
2023/10/19 07:27:29;;;;;;;7.27;5.47;;;13.80;99.90;;;;;;4992624;28;20457;-64
2023/10/19 07:29:57;;;;;;;11.30;5.33;;;13.80;99.90;;;;;;4993067;28;20461;-64
2023/10/19 07:32:24;;;;;;;7.60;5.63;;;13.90;99.90;;;;;;4993199;28;20465;-65
2023/10/19 07:34:52;;;;;;;8.00;4.80;;;13.90;99.90;;;;;;5008877;28;20463;-64
2023/10/19 07:37:21;;;;;;;6.57;5.83;;;14.00;99.90;;;;;;5012758;28;20827;-64
2023/10/19 07:39:50;;;;;;;6.53;4.63;;;14.00;99.90;;;;;;5012577;28;20464;-65
2023/10/19 07:42:17;;;;;;;11.90;5.60;;;14.10;99.90;;;;;;5014241;28;20903;-65
2023/10/19 07:44:45;;;;;;;7.73;5.80;;;14.10;99.90;;;;;;5014038;28;20498;-65
2023/10/19 07:47:12;;;;;;;10.30;6.00;;;14.10;99.90;;;;;;4998659;28;20461;-65
2023/10/19 07:49:40;;;;;;;6.93;4.80;;;14.10;99.90;;;;;;4994375;28;20465;-64
2023/10/19 07:52:08;;;;;;;6.43;5.10;;;14.20;99.90;;;;;;4994441;28;20457;-65
2023/10/19 07:54:37;;;;;;;10.60;6.07;;;14.20;99.90;;;;;;4994534;28;20492;-65
2023/10/19 07:57:06;;;;;;;7.70;5.70;;;14.20;99.90;;;;;;4994399;28;20461;-64
2023/10/19 07:59:33;;;;;;;7.77;5.03;;;14.30;99.90;;;;;;4993899;28;20518;-65
2023/10/19 08:02:03;;;;;;;6.53;5.23;;;14.30;99.90;;;;;;5002559;28;20784;-64
2023/10/19 08:04:31;;;;;;;8.70;5.33;;;14.30;99.90;;;;;;5013347;28;20492;-65
2023/10/19 08:06:58;;;;;;;5.47;4.87;;;14.30;99.90;;;;;;5014018;28;20567;-64
2023/10/19 08:09:31;;;;;;;10.87;5.70;;;14.40;99.90;;;;;;5013944;28;20472;-65
2023/10/19 08:12:01;;;;;;;6.17;4.77;;;14.40;99.90;;;;;;4995701;28;20453;-64
2023/10/19 08:14:30;;;;;;;5.90;5.03;;;14.40;99.90;;;;;;4995278;28;20555;-65
2023/10/19 08:16:57;;;;;;;7.23;5.50;;;14.50;99.90;;;;;;5005690;28;20797;-65
2023/10/19 08:19:25;;;;;;;7.80;4.77;;;14.60;99.90;;;;;;5017278;28;20934;-65
2023/10/19 08:21:52;;;;;;;6.00;4.73;;;14.70;99.90;;;;;;5017035;28;20499;-65
2023/10/19 08:24:20;;;;;;;8.10;4.70;;;14.80;99.90;;;;;;5016550;28;20575;-65
2023/10/19 08:26:48;;;;;;;7.40;5.10;;;14.90;99.90;;;;;;5017505;28;20957;-64
2023/10/19 08:29:16;;;;;;;6.87;4.60;;;14.90;99.90;;;;;;5017525;28;20466;-65
2023/10/19 08:31:45;;;;;;;6.83;5.00;;;14.90;99.90;;;;;;5007883;28;20542;-65
2023/10/19 08:34:13;;;;;;;9.20;4.70;;;14.90;99.90;;;;;;4996959;28;20464;-66
2023/10/19 08:36:40;;;;;;;6.40;3.63;;;14.90;99.90;;;;;;4997162;28;20468;-65
2023/10/19 08:39:12;;;;;;;6.90;4.97;;;15.00;99.90;;;;;;4997344;28;20492;-65
2023/10/19 08:41:41;;;;;;;7.30;3.90;;;15.00;99.90;;;;;;4996591;28;20472;-65
2023/10/19 08:44:11;;;;;;;7.10;4.43;;;15.10;99.90;;;;;;4995441;28;20464;-65
2023/10/19 08:46:44;;;;;;;10.77;4.40;;;15.20;99.90;;;;;;4995062;28;20497;-65
2023/10/19 08:49:12;;;;;;;6.43;3.87;;;15.30;99.90;;;;;;4994776;28;20461;-65
2023/10/19 08:51:40;;;;;;;5.40;4.20;;;15.40;99.90;;;;;;4995932;28;20559;-65
2023/10/19 08:54:10;;;;;;;6.90;4.30;;;15.50;99.90;;;;;;4996353;28;20468;-64
2023/10/19 08:56:38;;;;;;;5.00;4.13;;;15.60;99.90;;;;;;4996117;28;20958;-65
2023/10/19 08:59:06;;;;;;;6.30;4.33;;;15.60;99.90;;;;;;4996324;28;20472;-65
2023/10/19 09:01:35;;;;;;;9.10;4.20;;;15.70;99.90;;;;;;4995373;28;20465;-64
2023/10/19 09:04:05;;;;;;;6.27;4.10;;;15.70;99.90;;;;;;4994847;28;20461;-64
2023/10/19 09:06:41;;;;;;;9.13;4.60;;;15.80;99.90;;;;;;4994326;28;20496;-64
2023/10/19 09:09:14;;;;;;;8.20;3.63;;;15.80;99.90;;;;;;4994406;28;20464;-64
2023/10/19 09:11:43;;;;;;;5.63;3.97;;;15.70;99.90;;;;;;4994848;28;20481;-64
2023/10/19 09:14:13;;;;;;;6.33;4.10;;;15.70;99.90;;;;;;4994090;28;20835;-64
2023/10/19 09:16:56;;;;;;;9.33;6.63;;;15.60;99.90;;;;;;4993349;28;20495;-64
2023/10/19 09:19:41;;;;;;;8.77;4.07;;;15.60;99.90;;;;;;4995154;28;20465;-64
2023/10/19 09:22:16;;;;;;;12.83;5.43;;;15.50;99.90;;;;;;4995026;28;20471;-64
2023/10/19 09:24:45;;;;;;;6.77;4.13;;;15.50;99.90;;;;;;4994635;28;20493;-64
2023/10/19 09:27:14;;;;;;;8.47;4.20;;;15.50;99.90;;;;;;4995230;28;20552;-64
2023/10/19 09:29:42;;;;;;;8.60;3.93;;;15.60;99.90;;;;;;4995450;28;20475;-64
2023/10/19 09:32:13;;;;;;;9.77;3.50;;;15.70;99.90;;;;;;4995173;28;20880;-64
2023/10/19 09:34:47;;;;;;;6.00;3.70;;;15.80;99.90;;;;;;4995516;28;20547;-63
2023/10/19 09:37:17;;;;;;;6.33;4.27;;;16.00;99.90;;;;;;4995142;28;20464;-63
2023/10/19 09:39:45;;;;;;;9.03;3.40;;;16.00;99.90;;;;;;4995264;28;20766;-63
2023/10/19 09:42:16;;;;;;;9.23;3.67;;;16.10;99.90;;;;;;4994071;28;20476;-63
2023/10/19 09:44:45;;;;;;;5.57;3.33;;;16.10;99.90;;;;;;4995154;28;20533;-63
2023/10/19 09:47:16;;;;;;;5.90;3.63;;;16.30;99.90;;;;;;4995652;28;20547;-63
2023/10/19 09:49:45;;;;;;;7.30;3.33;;;16.30;99.90;;;;;;4994745;28;20733;-63
2023/10/19 09:52:16;;;;;;;9.23;3.80;;;16.50;99.90;;;;;;4993825;28;20902;-63
2023/10/19 09:54:52;;;;;;;6.60;2.90;;;16.70;99.90;;;;;;4993665;28;20465;-63
2023/10/19 09:57:28;;;;;;;8.07;3.43;;;17.00;99.90;;;;;;4994259;28;20560;-63
2023/10/19 10:00:08;;;;;;;8.37;3.47;;;17.20;99.90;;;;;;4993990;28;20551;-64
2023/10/19 10:02:36;;;;;;;8.60;3.10;;;17.30;99.90;;;;;;4994140;28;20582;-64
2023/10/19 10:05:05;;;;;;;8.53;3.40;;;17.30;99.90;;;;;;4993486;28;20468;-63
2023/10/19 10:07:33;;;;;;;7.63;3.10;;;17.20;99.90;;;;;;4994574;28;20879;-63
2023/10/19 10:10:00;;;;;;;5.60;3.10;;;17.30;99.90;;;;;;4993283;28;20515;-65
2023/10/19 10:12:28;;;;;;;6.37;3.10;;;17.90;1.00;;;;;;4993816;28;20887;-64
2023/10/19 10:15:05;;;;;;;6.03;2.63;;;18.60;99.90;;;;;;4994167;28;20457;-65
2023/10/19 10:17:37;;;;;;;8.00;3.27;;;19.40;99.90;;;;;;4994339;28;20556;-65
2023/10/19 10:20:34;;;;;;;6.83;2.70;;;19.90;17.40;;;;;;4993788;28;20461;-64
2023/10/19 10:23:24;;;;;;;4.60;2.30;;;20.30;99.90;;;;;;4992561;28;20994;-64
2023/10/19 10:25:53;;;;;;;7.03;2.30;;;20.50;87.80;;;;;;4992516;28;20496;-64
2023/10/19 10:28:23;;;;;;;5.03;3.03;;;20.60;99.90;;;;;;4992366;28;20523;-63
2023/10/19 10:31:14;;;;;;;6.73;2.70;;;20.50;27.70;;;;;;4997159;28;20530;-64
2023/10/19 10:33:44;;;;;;;5.60;3.30;;;20.40;1.00;;;;;;4991687;28;20934;-63
2023/10/19 10:36:14;;;;;;;8.33;3.17;;;20.30;1.00;;;;;;4990787;28;20461;-63
2023/10/19 10:38:42;;;;;;;7.23;3.00;;;20.30;1.00;;;;;;4993895;28;20561;-63
2023/10/19 10:41:13;;;;;;;9.00;3.13;;;20.20;1.00;;;;;;4994143;28;20453;-63
2023/10/19 10:43:53;;;;;;;6.33;3.13;;;20.10;1.00;;;;;;4991329;28;20844;-63
2023/10/19 10:46:25;;;;;;;6.60;2.80;;;20.00;1.00;;;;;;4991350;28;20580;-63
2023/10/19 10:48:52;;;;;;;6.17;3.17;;;19.70;1.00;;;;;;4993300;28;20747;-63
2023/10/19 10:51:23;;;;;;;10.00;3.40;;;19.60;1.00;;;;;;4994348;28;20457;-63
2023/10/19 10:53:52;;;;;;;10.83;3.53;;;19.50;1.00;;;;;;4992426;28;20522;-62
2023/10/19 10:56:20;;;;;;;7.50;2.57;;;19.50;1.00;;;;;;4992723;28;20457;-62
2023/10/19 10:58:48;;;;;;;6.40;2.97;;;19.50;1.00;;;;;;4992363;28;20792;-62
2023/10/19 11:01:16;;;;;;;4.93;2.90;;;19.50;1.00;;;;;;4992325;28;20977;-62
2023/10/19 11:03:43;;;;;;;5.50;2.93;;;19.60;1.00;;;;;;4992472;28;20493;-62
2023/10/19 11:06:11;;;;;;;6.53;3.00;;;19.80;1.00;;;;;;4992436;28;20583;-62
2023/10/19 11:08:40;;;;;;;6.80;2.80;;;20.00;1.00;;;;;;4993482;28;20527;-62
2023/10/19 11:11:11;;;;;;;7.07;2.70;;;19.90;1.00;;;;;;4993238;28;20461;-61
2023/10/19 11:13:39;;;;;;;7.50;2.97;;;19.90;1.00;;;;;;4993027;28;20854;-61
2023/10/19 11:16:09;;;;;;;7.43;2.80;;;19.80;1.00;;;;;;4993222;28;20550;-62
2023/10/19 11:18:39;;;;;;;7.33;3.50;;;19.60;1.00;;;;;;4992379;28;20493;-61
2023/10/19 11:21:09;;;;;;;6.43;3.13;;;19.50;1.00;;;;;;4993507;28;20483;-61
2023/10/19 11:23:43;;;;;;;6.47;2.77;;;19.50;1.00;;;;;;4992604;28;20465;-61
2023/10/19 11:26:11;;;;;;;10.80;3.20;;;19.50;1.00;;;;;;4993972;28;20503;-60
2023/10/19 11:28:47;;;;;;;7.10;2.90;;;19.50;1.00;;;;;;4994867;28;20749;-59
2023/10/19 11:31:19;;;;;;;9.73;3.60;;;19.50;1.00;;;;;;4993074;28;20468;-60
2023/10/19 11:33:48;;;;;;;6.90;3.30;;;19.40;1.00;;;;;;4992851;28;20571;-60
2023/10/19 11:36:16;;;;;;;5.20;2.57;;;19.50;1.00;;;;;;4992749;28;20490;-59
2023/10/19 11:38:46;;;;;;;7.47;3.07;;;19.80;1.00;;;;;;4993011;28;20558;-59
2023/10/19 11:41:15;;;;;;;6.37;2.90;;;20.10;1.00;;;;;;4994094;28;20461;-59
2023/10/19 11:43:43;;;;;;;4.40;2.93;;;20.30;1.00;;;;;;4993501;28;20795;-60
2023/10/19 11:46:12;;;;;;;5.77;2.73;;;20.30;1.00;;;;;;4993512;28;20493;-59
2023/10/19 11:48:42;;;;;;;7.20;3.33;;;20.10;1.00;;;;;;4995858;28;20906;-59
2023/10/19 11:51:11;;;;;;;7.70;2.87;;;20.00;1.00;;;;;;4997003;28;20465;-59
2023/10/19 11:53:40;;;;;;;7.13;2.87;;;19.80;1.00;;;;;;4996985;28;20732;-59
2023/10/19 11:56:12;;;;;;;6.93;3.13;;;19.60;1.00;;;;;;4997001;28;20835;-59
2023/10/19 11:58:41;;;;;;;8.27;3.40;;;19.40;1.00;;;;;;4996263;28;20465;-59
2023/10/19 12:01:11;;;;;;;6.20;3.07;;;19.30;1.00;;;;;;4995939;28;20471;-58
2023/10/19 12:03:40;;;;;;;10.90;3.20;;;19.20;1.00;;;;;;4996583;28;20560;-59
2023/10/19 12:06:07;;;;;;;8.33;2.87;;;19.30;1.00;;;;;;4997279;28;20492;-59
2023/10/19 12:08:35;;;;;;;9.57;3.60;;;19.30;1.00;;;;;;4997871;28;20493;-59
2023/10/19 12:11:03;;;;;;;6.73;3.47;;;19.20;1.00;;;;;;4997612;28;20512;-59
2023/10/19 12:13:32;;;;;;;10.30;3.90;;;19.20;1.00;;;;;;4997499;28;20487;-58
2023/10/19 12:16:04;;;;;;;8.50;3.70;;;19.10;1.00;;;;;;4997440;28;20484;-59
2023/10/19 12:18:31;;;;;;;7.40;2.93;;;18.90;1.00;;;;;;4997694;28;20467;-59
2023/10/19 12:20:59;;;;;;;4.63;3.60;;;19.00;1.00;;;;;;4992709;28;20477;-59
2023/10/19 12:23:27;;;;;;;8.93;2.80;;;18.90;1.00;;;;;;4993615;28;20477;-59
2023/10/19 12:25:55;;;;;;;7.43;3.30;;;19.00;1.00;;;;;;4997380;28;20557;-59
2023/10/19 12:28:24;;;;;;;7.67;3.17;;;18.90;1.00;;;;;;4997342;28;20822;-59
2023/10/19 12:30:53;;;;;;;5.50;2.70;;;19.00;1.00;;;;;;4997339;28;20491;-59
2023/10/19 12:33:20;;;;;;;6.10;3.10;;;19.00;1.00;;;;;;4997573;28;20465;-59
2023/10/19 12:35:51;;;;;;;5.90;3.10;;;19.00;1.00;;;;;;4996841;28;20559;-59
2023/10/19 12:38:19;;;;;;;7.23;3.73;;;18.90;1.00;;;;;;4997208;28;20467;-59
2023/10/19 12:40:48;;;;;;;5.37;2.80;;;18.80;1.00;;;;;;4997220;28;20871;-59
2023/10/19 12:43:18;;;;;;;7.07;3.33;;;18.70;1.00;;;;;;4997220;28;20833;-59
2023/10/19 12:45:50;;;;;;;7.60;3.00;;;18.60;1.00;;;;;;4996546;28;20465;-59
2023/10/19 12:48:19;;;;;;;6.93;3.63;;;18.50;1.00;;;;;;4996442;28;20465;-59
2023/10/19 12:50:46;;;;;;;6.47;3.30;;;18.50;1.00;;;;;;4995927;28;20467;-58
2023/10/19 12:53:14;;;;;;;10.03;3.50;;;18.30;1.00;;;;;;4995178;28;20494;-59
2023/10/19 12:55:43;;;;;;;6.10;3.30;;;18.30;1.00;;;;;;4995993;28;20440;-59
2023/10/19 12:58:11;;;;;;;7.70;3.57;;;18.10;1.00;;;;;;4996515;28;20476;-59
2023/10/19 13:00:43;;;;;;;6.90;3.40;;;18.00;1.00;;;;;;4996114;28;20559;-59